Time;durP1;ratioP1;P1;durP2;ratioP2;P2;SDS_P1;SDS_P2;PMS_P1;PMS_P2;Temp;Humidity;BMP_temperature;BMP_pressure;BME280_temperature;BME280_humidity;BME280_pressure;Samples;Min_cycle;Max_cycle;Signal;HPM_P1;HPM_P2
2022/10/19 00:01:11;;;;;;;1.55;1.30;;;20.30;60.60;;;;;;4966702;29;20039;-69
2022/10/19 00:03:37;;;;;;;1.30;1.20;;;20.30;60.60;;;;;;4965551;28;20135;-69
2022/10/19 00:06:11;;;;;;;1.65;1.48;;;20.30;60.60;;;;;;4966631;29;20080;-69
2022/10/19 00:08:37;;;;;;;1.20;1.10;;;20.30;60.60;;;;;;4966580;28;20046;-69
2022/10/19 00:11:03;;;;;;;1.30;1.20;;;20.30;60.60;;;;;;4966561;29;20078;-68
2022/10/19 00:13:29;;;;;;;1.25;1.15;;;20.30;60.60;;;;;;4966480;29;20023;-69
2022/10/19 00:15:54;;;;;;;1.48;1.30;;;20.30;60.60;;;;;;4966428;29;20026;-69
2022/10/19 00:18:20;;;;;;;1.40;1.15;;;20.30;60.70;;;;;;4966309;29;20070;-68
2022/10/19 00:20:46;;;;;;;1.63;1.52;;;20.30;60.60;;;;;;4966329;29;20027;-69
2022/10/19 00:23:12;;;;;;;1.65;1.45;;;20.30;60.60;;;;;;4966322;29;20078;-68
2022/10/19 00:25:37;;;;;;;1.38;1.23;;;20.30;60.70;;;;;;4966251;29;20031;-69
2022/10/19 00:28:03;;;;;;;3.05;1.70;;;20.30;60.70;;;;;;4966228;29;20023;-69
2022/10/19 00:30:29;;;;;;;1.40;1.27;;;20.30;60.70;;;;;;4966175;29;20095;-69
2022/10/19 00:32:56;;;;;;;2.42;1.58;;;20.30;60.60;;;;;;4966133;29;20025;-68
2022/10/19 00:35:21;;;;;;;1.30;1.20;;;20.30;60.70;;;;;;4966078;29;20027;-69
2022/10/19 00:37:47;;;;;;;1.60;1.48;;;20.30;60.60;;;;;;4965890;29;20382;-69
2022/10/19 00:40:13;;;;;;;1.30;1.20;;;20.30;60.60;;;;;;4965907;29;20255;-69
2022/10/19 00:42:39;;;;;;;1.35;1.25;;;20.20;60.60;;;;;;4965948;29;20026;-69
2022/10/19 00:45:15;;;;;;;1.15;1.10;;;20.30;60.70;;;;;;4965947;28;20069;-70
2022/10/19 00:47:43;;;;;;;1.60;1.40;;;20.30;60.60;;;;;;4965941;28;20255;-69
2022/10/19 00:50:12;;;;;;;1.80;1.40;;;20.30;60.70;;;;;;4965859;28;20307;-69
2022/10/19 00:52:37;;;;;;;;;;;20.20;60.50;;;;;;4965369;28;20245;-70
2022/10/19 00:55:04;;;;;;;1.77;1.38;;;20.30;60.60;;;;;;4965772;28;19961;-69
2022/10/19 00:57:31;;;;;;;1.50;1.40;;;20.30;60.60;;;;;;4965702;29;20070;-69
2022/10/19 00:59:59;;;;;;;1.90;1.20;;;20.30;60.60;;;;;;4965628;29;20050;-69
2022/10/19 01:02:24;;;;;;;1.23;1.13;;;20.30;60.60;;;;;;4965713;29;20242;-69
2022/10/19 01:04:51;;;;;;;1.30;1.20;;;20.20;60.60;;;;;;4965600;29;20316;-67
2022/10/19 01:07:18;;;;;;;1.50;1.40;;;20.20;60.60;;;;;;4965583;29;20303;-67
2022/10/19 01:09:44;;;;;;;1.52;1.27;;;20.20;60.60;;;;;;4965586;29;20035;-67
2022/10/19 01:12:27;;;;;;;1.20;1.10;;;20.20;60.60;;;;;;4965552;28;20023;-67
2022/10/19 01:15:31;;;;;;;1.42;1.33;;;20.20;60.60;;;;;;4965473;29;20122;-67
2022/10/19 01:18:12;;;;;;;1.52;1.30;;;20.20;60.60;;;;;;4965493;29;20019;-69
2022/10/19 01:20:38;;;;;;;1.58;1.48;;;20.20;60.60;;;;;;4965379;28;20082;-66
2022/10/19 01:23:03;;;;;;;2.17;1.48;;;20.20;60.70;;;;;;4965366;29;20048;-68
2022/10/19 01:26:22;;;;;;;1.50;1.40;;;20.20;60.60;;;;;;4965653;28;20295;-66
2022/10/19 01:28:54;;;;;;;1.15;1.10;;;20.20;60.70;;;;;;4982730;28;20026;-66
2022/10/19 01:31:48;;;;;;;1.42;1.33;;;20.20;60.70;;;;;;4966311;28;20151;-68
2022/10/19 01:34:33;;;;;;;1.20;1.10;;;20.20;60.70;;;;;;4965318;28;20054;-67
2022/10/19 01:37:16;;;;;;;1.27;1.15;;;20.20;60.70;;;;;;4965081;29;20047;-68
2022/10/19 01:40:40;;;;;;;1.85;1.50;;;20.20;60.70;;;;;;4965141;29;20051;-66
2022/10/19 01:43:19;;;;;;;1.35;1.25;;;20.20;60.60;;;;;;4953458;28;20132;-69
2022/10/19 01:46:05;;;;;;;1.75;1.63;;;20.20;60.60;;;;;;4965170;29;20083;-68
2022/10/19 01:48:36;;;;;;;1.33;1.23;;;20.20;60.60;;;;;;4965148;29;20303;-68
2022/10/19 01:51:26;;;;;;;1.40;1.30;;;20.20;60.70;;;;;;4965159;29;20027;-65
2022/10/19 01:53:56;;;;;;;1.55;1.40;;;20.20;61.40;;;;;;4963949;29;20094;-65
2022/10/19 01:56:26;;;;;;;2.10;1.70;;;20.20;60.70;;;;;;4965034;29;20021;-66
2022/10/19 01:58:57;;;;;;;1.42;1.20;;;20.20;60.70;;;;;;4965019;29;20043;-66
2022/10/19 02:01:25;;;;;;;1.38;1.27;;;20.10;60.80;;;;;;4965075;29;20019;-67
2022/10/19 02:03:53;;;;;;;1.73;1.45;;;20.20;60.80;;;;;;4967074;28;20034;-67
2022/10/19 02:06:20;;;;;;;1.77;1.30;;;20.20;60.70;;;;;;4968804;29;20031;-66
2022/10/19 02:08:48;;;;;;;1.60;1.50;;;20.10;60.80;;;;;;4968769;29;20027;-68
2022/10/19 02:11:15;;;;;;;1.70;1.60;;;20.10;60.70;;;;;;4968768;28;20029;-68
2022/10/19 02:13:43;;;;;;;1.52;1.20;;;20.20;60.70;;;;;;4968684;29;20031;-68
2022/10/19 02:16:14;;;;;;;1.63;1.43;;;20.10;60.80;;;;;;4968645;29;20062;-68
2022/10/19 02:18:45;;;;;;;1.60;1.30;;;20.10;60.70;;;;;;4968538;29;20250;-68
2022/10/19 02:21:11;;;;;;;1.30;1.20;;;20.10;60.60;;;;;;4968590;29;20026;-68
2022/10/19 02:23:37;;;;;;;1.45;1.35;;;20.10;60.70;;;;;;4968522;29;20078;-68
2022/10/19 02:26:03;;;;;;;1.27;1.17;;;20.10;60.70;;;;;;4968439;29;20026;-68
2022/10/19 02:28:29;;;;;;;1.60;1.50;;;20.10;60.70;;;;;;4968420;29;20019;-69
2022/10/19 02:30:56;;;;;;;1.63;1.42;;;20.10;60.70;;;;;;4968356;29;20023;-68
2022/10/19 02:33:22;;;;;;;1.65;1.23;;;20.10;60.60;;;;;;4968300;29;20038;-68
2022/10/19 02:35:48;;;;;;;1.52;1.40;;;20.10;60.70;;;;;;4968100;29;20019;-68
2022/10/19 02:38:18;;;;;;;1.30;1.20;;;20.10;60.70;;;;;;4967132;28;20047;-68
2022/10/19 02:40:53;;;;;;;1.63;1.40;;;20.10;60.80;;;;;;4968412;29;20039;-68
2022/10/19 02:43:21;;;;;;;1.33;1.23;;;20.10;60.70;;;;;;4968151;29;20019;-67
2022/10/19 02:45:59;;;;;;;1.40;1.30;;;20.10;60.80;;;;;;4968082;28;20019;-68
2022/10/19 02:48:28;;;;;;;1.90;1.67;;;20.10;60.70;;;;;;4968090;29;20204;-68
2022/10/19 02:50:54;;;;;;;1.17;1.08;;;20.10;60.80;;;;;;4968038;29;20363;-67
2022/10/19 02:53:19;;;;;;;1.77;1.50;;;20.10;60.80;;;;;;4968017;29;20067;-68
2022/10/19 02:55:48;;;;;;;1.55;1.45;;;20.10;60.80;;;;;;4967957;29;20027;-68
2022/10/19 02:58:14;;;;;;;1.70;1.45;;;20.10;60.80;;;;;;4968166;29;20041;-68
2022/10/19 03:00:40;;;;;;;1.13;1.02;;;20.10;60.80;;;;;;4967786;29;20319;-67
2022/10/19 03:03:06;;;;;;;1.70;1.30;;;20.10;60.80;;;;;;4967797;29;20078;-68
2022/10/19 03:05:32;;;;;;;1.63;1.52;;;20.10;60.80;;;;;;4967766;29;20245;-68
2022/10/19 03:07:57;;;;;;;1.67;1.50;;;20.10;60.70;;;;;;4967721;29;20026;-68
2022/10/19 03:10:23;;;;;;;1.75;1.52;;;20.10;60.80;;;;;;4967737;28;20222;-68
2022/10/19 03:12:49;;;;;;;2.13;1.50;;;20.10;60.80;;;;;;4967652;29;20027;-68
2022/10/19 03:15:16;;;;;;;1.40;1.30;;;20.10;60.80;;;;;;4966644;28;20046;-68
2022/10/19 03:17:42;;;;;;;1.35;1.25;;;20.00;60.80;;;;;;4967527;29;20019;-69
2022/10/19 03:20:09;;;;;;;1.98;1.48;;;20.10;60.80;;;;;;4967416;28;20210;-67
2022/10/19 03:22:35;;;;;;;1.92;1.48;;;20.00;60.70;;;;;;4967464;28;20042;-68
2022/10/19 03:25:01;;;;;;;2.05;1.67;;;20.00;60.70;;;;;;4967407;29;20026;-68
2022/10/19 03:27:26;;;;;;;1.70;1.60;;;20.00;60.70;;;;;;4967341;29;20015;-66
2022/10/19 03:29:52;;;;;;;1.30;1.20;;;20.00;60.80;;;;;;4967313;29;20214;-65
2022/10/19 03:32:18;;;;;;;2.13;1.60;;;20.00;60.70;;;;;;4967267;29;20023;-65
2022/10/19 03:34:44;;;;;;;1.98;1.60;;;20.00;60.70;;;;;;4967259;28;20223;-66
2022/10/19 03:37:12;;;;;;;2.03;1.80;;;20.00;60.70;;;;;;4966988;29;20042;-67
2022/10/19 03:39:38;;;;;;;1.20;1.10;;;20.00;60.70;;;;;;4967100;28;20035;-66
2022/10/19 03:42:03;;;;;;;1.50;1.40;;;20.00;60.70;;;;;;4967088;29;20211;-67
2022/10/19 03:44:29;;;;;;;1.73;1.50;;;20.00;60.80;;;;;;4967080;29;20027;-68
2022/10/19 03:46:55;;;;;;;2.70;1.63;;;20.00;60.80;;;;;;4967032;29;20312;-66
2022/10/19 03:49:21;;;;;;;1.42;1.33;;;20.00;60.80;;;;;;4966919;29;20027;-68
2022/10/19 03:51:46;;;;;;;1.52;1.42;;;20.00;60.70;;;;;;4966922;29;20023;-66
2022/10/19 03:54:15;;;;;;;1.60;1.42;;;20.00;60.80;;;;;;4966844;29;20026;-68
2022/10/19 03:56:41;;;;;;;1.88;1.48;;;20.00;60.70;;;;;;4966848;29;20023;-66
2022/10/19 03:59:09;;;;;;;1.60;1.42;;;20.00;60.70;;;;;;4966718;29;20023;-67
2022/10/19 04:01:39;;;;;;;1.40;1.25;;;20.00;60.70;;;;;;4966744;29;20026;-66
2022/10/19 04:04:09;;;;;;;1.75;1.50;;;20.00;60.70;;;;;;4966704;28;20086;-66
2022/10/19 04:06:38;;;;;;;2.05;1.67;;;20.00;60.70;;;;;;4966670;29;20038;-66
2022/10/19 04:09:06;;;;;;;1.58;1.48;;;20.00;60.80;;;;;;4966608;29;20029;-66
2022/10/19 04:11:33;;;;;;;1.70;1.60;;;20.00;60.70;;;;;;4966579;29;20029;-66
2022/10/19 04:14:00;;;;;;;1.63;1.40;;;20.00;60.70;;;;;;4966474;29;20263;-66
2022/10/19 04:16:27;;;;;;;1.50;1.25;;;20.00;60.70;;;;;;4966462;29;20058;-66
2022/10/19 04:18:53;;;;;;;1.85;1.75;;;20.00;60.70;;;;;;4966323;29;20043;-66
2022/10/19 04:21:32;;;;;;;2.28;1.77;;;20.00;60.80;;;;;;4966365;29;20075;-67
2022/10/19 04:24:12;;;;;;;1.92;1.73;;;20.00;60.80;;;;;;4966299;29;20023;-65
2022/10/19 04:26:44;;;;;;;1.40;1.27;;;20.00;60.80;;;;;;4966149;28;20355;-67
2022/10/19 04:29:10;;;;;;;1.95;1.67;;;20.00;60.80;;;;;;4966210;29;20031;-66
2022/10/19 04:31:37;;;;;;;1.95;1.63;;;20.00;60.80;;;;;;4966178;29;20035;-68
2022/10/19 04:34:03;;;;;;;2.00;1.45;;;20.00;60.70;;;;;;4966120;29;20027;-65
2022/10/19 04:36:29;;;;;;;1.63;1.52;;;20.00;60.80;;;;;;4965895;29;20047;-67
2022/10/19 04:38:54;;;;;;;1.67;1.52;;;20.00;60.80;;;;;;4965964;29;20035;-67
2022/10/19 04:41:21;;;;;;;1.42;1.33;;;19.90;60.80;;;;;;4966004;29;20086;-68
2022/10/19 04:43:48;;;;;;;2.05;1.85;;;19.90;60.80;;;;;;4965977;29;20086;-67
2022/10/19 04:46:18;;;;;;;1.50;1.40;;;20.00;60.80;;;;;;4965914;29;20023;-66
2022/10/19 04:48:45;;;;;;;1.85;1.48;;;19.90;60.80;;;;;;4965890;29;20029;-68
2022/10/19 04:51:11;;;;;;;1.50;1.35;;;19.90;60.80;;;;;;4965886;29;20019;-66
2022/10/19 04:53:39;;;;;;;2.45;1.75;;;19.90;60.70;;;;;;4965798;29;20019;-68
2022/10/19 04:56:08;;;;;;;1.63;1.52;;;19.90;60.70;;;;;;4965780;29;20045;-66
2022/10/19 04:58:33;;;;;;;;;;;19.90;60.70;;;;;;4966131;29;20095;-66
2022/10/19 05:01:05;;;;;;;1.20;1.10;;;19.90;60.70;;;;;;4965765;28;19903;-68
2022/10/19 05:03:31;;;;;;;1.48;1.38;;;19.90;60.70;;;;;;4965679;29;20022;-68
2022/10/19 05:05:58;;;;;;;2.13;1.70;;;19.90;60.70;;;;;;4965636;29;20026;-68
2022/10/19 05:08:24;;;;;;;1.42;1.33;;;19.90;60.80;;;;;;4965608;29;20030;-68
2022/10/19 05:10:49;;;;;;;2.63;2.00;;;19.90;60.70;;;;;;4965513;29;20011;-68
2022/10/19 05:13:15;;;;;;;1.70;1.58;;;19.90;60.70;;;;;;4965530;29;20030;-68
2022/10/19 05:15:41;;;;;;;2.28;1.52;;;19.90;60.70;;;;;;4965542;28;20015;-68
2022/10/19 05:18:07;;;;;;;1.83;1.38;;;19.90;60.70;;;;;;4965471;29;20023;-69
2022/10/19 05:20:33;;;;;;;1.80;1.60;;;19.90;60.70;;;;;;4965328;29;20026;-67
2022/10/19 05:22:58;;;;;;;1.67;1.50;;;19.90;60.70;;;;;;4965426;29;20079;-68
2022/10/19 05:25:24;;;;;;;1.70;1.60;;;19.90;60.70;;;;;;4965389;29;20063;-67
2022/10/19 05:27:51;;;;;;;2.63;2.25;;;19.90;60.70;;;;;;4965333;29;20062;-67
2022/10/19 05:30:18;;;;;;;1.90;1.70;;;19.90;60.70;;;;;;4965593;29;20026;-68
2022/10/19 05:32:43;;;;;;;2.15;1.63;;;19.90;60.70;;;;;;4965304;29;20030;-68
2022/10/19 05:35:09;;;;;;;1.90;1.52;;;19.90;60.70;;;;;;4965287;29;20026;-68
2022/10/19 05:37:35;;;;;;;1.90;1.60;;;19.90;60.70;;;;;;4964528;29;20068;-68
2022/10/19 05:40:01;;;;;;;1.58;1.48;;;19.90;60.80;;;;;;4965161;29;20027;-68
2022/10/19 05:42:27;;;;;;;1.63;1.52;;;19.90;60.70;;;;;;4965247;29;20015;-68
2022/10/19 05:44:53;;;;;;;2.10;1.90;;;19.90;60.60;;;;;;4965177;29;20082;-68
2022/10/19 05:47:18;;;;;;;2.28;2.03;;;19.90;60.60;;;;;;4965178;29;20030;-67
2022/10/19 05:49:44;;;;;;;2.85;1.70;;;19.90;60.60;;;;;;4965115;29;20141;-68
2022/10/19 05:52:10;;;;;;;1.77;1.60;;;19.90;60.70;;;;;;4965164;28;20047;-67
2022/10/19 05:54:36;;;;;;;2.30;1.67;;;19.90;60.70;;;;;;4965092;29;20027;-68
2022/10/19 05:57:02;;;;;;;2.33;1.90;;;19.90;60.70;;;;;;4965075;29;20026;-68
2022/10/19 05:59:28;;;;;;;1.60;1.50;;;19.90;60.60;;;;;;4964980;29;20047;-68
2022/10/19 06:01:53;;;;;;;1.73;1.40;;;19.90;60.60;;;;;;4965064;29;20030;-68
2022/10/19 06:04:19;;;;;;;1.95;1.80;;;19.90;60.70;;;;;;4965006;29;20019;-68
2022/10/19 06:06:45;;;;;;;1.85;1.63;;;19.90;60.70;;;;;;4965006;29;20082;-69
2022/10/19 06:09:11;;;;;;;1.42;1.30;;;19.90;60.70;;;;;;4964949;28;20023;-68
2022/10/19 06:11:40;;;;;;;1.77;1.67;;;19.90;60.60;;;;;;4964954;29;20019;-67
2022/10/19 06:14:11;;;;;;;1.50;1.40;;;19.90;60.70;;;;;;4964930;29;20087;-68
2022/10/19 06:16:37;;;;;;;2.10;1.60;;;19.90;60.60;;;;;;4964928;29;20027;-67
2022/10/19 06:19:04;;;;;;;2.95;1.73;;;19.90;60.60;;;;;;4964805;29;20200;-68
2022/10/19 06:21:30;;;;;;;2.33;1.90;;;19.90;60.60;;;;;;4964860;29;20049;-68
2022/10/19 06:24:02;;;;;;;2.03;1.73;;;19.90;60.60;;;;;;4964842;29;20022;-67
2022/10/19 06:26:29;;;;;;;2.25;1.73;;;19.90;60.70;;;;;;4964853;28;20026;-68
2022/10/19 06:28:59;;;;;;;2.22;1.90;;;19.90;60.60;;;;;;4964847;28;20023;-68
2022/10/19 06:31:29;;;;;;;1.75;1.50;;;19.90;60.70;;;;;;4964794;29;20278;-68
2022/10/19 06:33:55;;;;;;;2.40;2.20;;;19.90;60.70;;;;;;4964789;29;20022;-67
2022/10/19 06:36:23;;;;;;;2.10;1.65;;;19.80;60.60;;;;;;4964606;29;20389;-68
2022/10/19 06:38:49;;;;;;;1.80;1.35;;;19.90;60.60;;;;;;4964687;29;20034;-66
2022/10/19 06:41:15;;;;;;;1.42;1.33;;;19.90;60.60;;;;;;4964700;29;20015;-68
2022/10/19 06:43:42;;;;;;;1.90;1.70;;;19.90;60.60;;;;;;4964691;29;20015;-68
2022/10/19 06:46:16;;;;;;;1.70;1.60;;;19.90;60.60;;;;;;4964688;28;20094;-68
2022/10/19 06:48:42;;;;;;;2.22;1.80;;;19.90;60.60;;;;;;4964653;28;20031;-68
2022/10/19 06:51:08;;;;;;;2.05;1.85;;;19.90;60.60;;;;;;4966820;29;20020;-69
2022/10/19 06:53:37;;;;;;;1.48;1.30;;;19.90;60.60;;;;;;4968040;29;20046;-68
2022/10/19 06:56:04;;;;;;;;;;;19.80;60.60;;;;;;4968416;29;20084;-67
2022/10/19 06:58:37;;;;;;;2.03;1.80;;;19.90;60.60;;;;;;4967875;28;19942;-68
2022/10/19 07:01:06;;;;;;;1.98;1.77;;;19.90;60.60;;;;;;4967904;29;20066;-68
2022/10/19 07:03:32;;;;;;;2.45;1.77;;;19.90;60.60;;;;;;4967816;29;20019;-69
2022/10/19 07:06:01;;;;;;;2.22;1.70;;;19.90;60.60;;;;;;4967805;29;20027;-68
2022/10/19 07:08:28;;;;;;;1.52;1.35;;;19.90;60.60;;;;;;4967791;29;20015;-67
2022/10/19 07:11:00;;;;;;;1.70;1.60;;;19.90;60.50;;;;;;4967745;29;20090;-68
2022/10/19 07:13:28;;;;;;;1.80;1.52;;;19.90;60.40;;;;;;4967669;29;20016;-67
2022/10/19 07:15:59;;;;;;;1.83;1.65;;;19.90;60.40;;;;;;4967644;29;20256;-68
2022/10/19 07:18:26;;;;;;;2.08;1.50;;;19.90;60.30;;;;;;4967564;29;20015;-68
2022/10/19 07:21:00;;;;;;;1.70;1.60;;;20.00;60.40;;;;;;4982414;28;20027;-69
2022/10/19 07:23:28;;;;;;;1.60;1.50;;;20.00;60.30;;;;;;4967560;29;20338;-69
2022/10/19 07:25:59;;;;;;;1.48;1.38;;;20.00;60.20;;;;;;4967449;29;20027;-68
2022/10/19 07:28:27;;;;;;;2.08;1.70;;;20.00;60.10;;;;;;4967440;28;20023;-67
2022/10/19 07:30:53;;;;;;;1.73;1.60;;;20.10;60.10;;;;;;4967328;29;20023;-66
2022/10/19 07:33:18;;;;;;;1.70;1.60;;;20.10;60.10;;;;;;4967286;29;20027;-66
2022/10/19 07:35:44;;;;;;;1.50;1.40;;;20.10;60.00;;;;;;4967112;29;20073;-67
2022/10/19 07:38:10;;;;;;;1.80;1.70;;;20.10;60.00;;;;;;4967251;29;20027;-66
2022/10/19 07:40:36;;;;;;;1.67;1.58;;;20.10;60.00;;;;;;4967107;29;20049;-68
2022/10/19 07:43:02;;;;;;;1.55;1.42;;;20.10;60.00;;;;;;4967131;29;20355;-67
2022/10/19 07:45:28;;;;;;;1.90;1.38;;;20.10;60.00;;;;;;4967121;28;20023;-67
2022/10/19 07:47:55;;;;;;;3.15;1.52;;;20.10;60.00;;;;;;4967052;28;20022;-68
2022/10/19 07:50:23;;;;;;;1.85;1.40;;;20.10;59.90;;;;;;4967003;29;20023;-68
2022/10/19 07:52:51;;;;;;;2.05;1.70;;;20.20;60.00;;;;;;4966965;28;20042;-65
2022/10/19 07:55:17;;;;;;;1.33;1.23;;;20.20;59.90;;;;;;4966937;29;20027;-66
2022/10/19 07:57:47;;;;;;;1.92;1.70;;;20.10;59.90;;;;;;4966829;29;20019;-66
2022/10/19 08:00:13;;;;;;;1.50;1.40;;;20.20;59.90;;;;;;4966712;28;20047;-66
2022/10/19 08:02:39;;;;;;;1.77;1.65;;;20.10;59.90;;;;;;4966361;29;20041;-67
2022/10/19 08:05:06;;;;;;;1.70;1.58;;;20.20;60.00;;;;;;4966712;29;20315;-66
2022/10/19 08:07:34;;;;;;;1.73;1.60;;;20.10;59.80;;;;;;4966622;29;20082;-67
2022/10/19 08:10:00;;;;;;;1.85;1.65;;;20.20;60.00;;;;;;4966615;29;20215;-68
2022/10/19 08:12:26;;;;;;;1.98;1.65;;;20.20;60.00;;;;;;4966596;28;20026;-68
2022/10/19 08:14:53;;;;;;;1.52;1.30;;;20.20;60.00;;;;;;4966525;29;20033;-67
2022/10/19 08:17:19;;;;;;;2.40;1.70;;;20.20;60.00;;;;;;4966474;29;20091;-68
2022/10/19 08:19:45;;;;;;;1.63;1.40;;;20.20;60.00;;;;;;4966334;29;20330;-67
2022/10/19 08:22:11;;;;;;;2.28;1.65;;;20.20;60.00;;;;;;4966415;29;20061;-68
2022/10/19 08:24:37;;;;;;;1.50;1.40;;;20.20;60.00;;;;;;4966372;28;20239;-67
2022/10/19 08:27:03;;;;;;;1.80;1.65;;;20.20;60.00;;;;;;4966315;29;20042;-66
2022/10/19 08:29:29;;;;;;;1.85;1.50;;;20.20;60.10;;;;;;4966285;29;20038;-66
2022/10/19 08:31:55;;;;;;;1.48;1.38;;;20.20;60.10;;;;;;4966245;29;20027;-66
2022/10/19 08:34:20;;;;;;;1.67;1.52;;;20.10;60.00;;;;;;4966175;29;20026;-68
2022/10/19 08:36:46;;;;;;;1.58;1.48;;;20.20;60.10;;;;;;4965989;29;20054;-66
2022/10/19 08:39:13;;;;;;;1.60;1.50;;;20.20;60.10;;;;;;4966031;29;20035;-66
2022/10/19 08:41:39;;;;;;;1.73;1.25;;;20.20;60.10;;;;;;4966074;28;20299;-68
2022/10/19 08:44:28;;;;;;;2.03;1.77;;;20.20;60.20;;;;;;4966061;28;20086;-68
2022/10/19 08:47:18;;;;;;;1.67;1.50;;;20.20;60.10;;;;;;4966024;29;20074;-69
2022/10/19 08:49:45;;;;;;;1.80;1.60;;;20.20;60.80;;;;;;4965943;29;20090;-67
2022/10/19 08:52:16;;;;;;;2.20;1.40;;;20.20;60.20;;;;;;4965917;28;20026;-67
2022/10/19 08:54:57;;;;;;;1.80;1.70;;;20.20;60.30;;;;;;4965857;29;20334;-66
2022/10/19 08:57:41;;;;;;;2.00;1.42;;;20.20;60.30;;;;;;4965832;29;20027;-68
2022/10/19 09:00:12;;;;;;;2.22;1.50;;;20.20;60.30;;;;;;4965725;29;20019;-67
2022/10/19 09:02:59;;;;;;;1.67;1.52;;;20.20;60.30;;;;;;4965744;29;20225;-66
2022/10/19 09:05:45;;;;;;;1.67;1.58;;;20.20;60.30;;;;;;4965694;29;20199;-66
2022/10/19 09:08:12;;;;;;;1.55;1.40;;;20.20;60.30;;;;;;4965688;29;20086;-66
2022/10/19 09:10:44;;;;;;;1.50;1.40;;;20.20;60.40;;;;;;4965614;28;20034;-67
2022/10/19 09:13:35;;;;;;;1.52;1.42;;;20.20;60.40;;;;;;4964844;28;20022;-65
2022/10/19 09:16:03;;;;;;;1.73;1.60;;;20.20;60.40;;;;;;4965569;28;20087;-66
2022/10/19 09:18:31;;;;;;;1.60;1.50;;;20.20;60.40;;;;;;4965501;29;20034;-68
2022/10/19 09:21:20;;;;;;;1.50;1.38;;;20.20;60.40;;;;;;4965392;29;20019;-68
2022/10/19 09:23:59;;;;;;;1.70;1.60;;;20.20;60.40;;;;;;4965464;28;20300;-68
2022/10/19 09:26:29;;;;;;;1.42;1.33;;;20.20;60.40;;;;;;4965489;28;20025;-68
2022/10/19 09:29:17;;;;;;;1.35;1.25;;;20.20;60.50;;;;;;4965413;29;20019;-68
2022/10/19 09:31:43;;;;;;;1.87;1.50;;;20.20;60.40;;;;;;4965365;29;20323;-68
2022/10/19 09:34:21;;;;;;;1.60;1.50;;;20.20;60.40;;;;;;4965279;29;20019;-69
2022/10/19 09:36:57;;;;;;;1.77;1.50;;;20.20;60.40;;;;;;4965136;29;20086;-69
2022/10/19 09:39:24;;;;;;;1.73;1.63;;;20.20;60.40;;;;;;4965189;29;20307;-69
2022/10/19 09:41:58;;;;;;;1.33;1.23;;;20.30;60.40;;;;;;4965247;29;20023;-69
2022/10/19 09:44:25;;;;;;;1.60;1.50;;;20.30;60.50;;;;;;4965242;29;20026;-67
2022/10/19 09:47:13;;;;;;;4.00;1.75;;;20.30;60.40;;;;;;4965201;29;20016;-68
2022/10/19 09:49:47;;;;;;;1.52;1.42;;;20.30;60.40;;;;;;4965192;29;20066;-68
2022/10/19 09:52:31;;;;;;;1.50;1.40;;;20.30;60.40;;;;;;4965191;29;20023;-68
2022/10/19 09:55:23;;;;;;;1.67;1.58;;;20.30;60.40;;;;;;4965166;28;20019;-66
2022/10/19 09:57:57;;;;;;;1.38;1.23;;;20.30;60.30;;;;;;4971509;28;20035;-66
2022/10/19 10:00:29;;;;;;;1.30;1.20;;;20.30;60.40;;;;;;4965030;29;20019;-66
2022/10/19 10:02:55;;;;;;;1.42;1.33;;;20.20;60.60;;;;;;4965080;29;20011;-66
2022/10/19 10:05:32;;;;;;;1.70;1.60;;;20.30;60.60;;;;;;4965000;29;20042;-68
2022/10/19 10:07:58;;;;;;;1.58;1.40;;;20.30;60.40;;;;;;4965043;29;20024;-66
2022/10/19 10:10:27;;;;;;;1.60;1.50;;;20.30;60.50;;;;;;4964974;29;20107;-68
2022/10/19 10:12:54;;;;;;;1.38;1.27;;;20.30;60.50;;;;;;4964997;28;20026;-67
2022/10/19 10:15:41;;;;;;;1.35;1.25;;;20.30;60.40;;;;;;4964953;28;20086;-66
2022/10/19 10:18:13;;;;;;;1.52;1.33;;;20.30;60.40;;;;;;4964974;29;20094;-68
2022/10/19 10:21:03;;;;;;;1.30;1.20;;;20.30;60.40;;;;;;4964875;28;20030;-66
2022/10/19 10:23:32;;;;;;;2.17;1.42;;;20.30;60.40;;;;;;4964922;28;20015;-68
2022/10/19 10:26:00;;;;;;;2.83;2.05;;;20.40;60.40;;;;;;4968514;29;20130;-66
2022/10/19 10:28:28;;;;;;;1.30;1.23;;;20.40;60.40;;;;;;4968534;29;20034;-67
2022/10/19 10:31:01;;;;;;;1.60;1.50;;;20.40;60.40;;;;;;4968498;29;20196;-68
2022/10/19 10:33:29;;;;;;;1.30;1.20;;;20.40;60.40;;;;;;4968840;29;20062;-68
2022/10/19 10:36:01;;;;;;;1.77;1.45;;;20.40;60.40;;;;;;4968173;29;20038;-66
2022/10/19 10:38:35;;;;;;;2.65;1.50;;;20.40;60.40;;;;;;4968345;29;20030;-67
2022/10/19 10:41:16;;;;;;;1.85;1.65;;;20.40;60.40;;;;;;4968298;28;20023;-67
2022/10/19 10:44:19;;;;;;;1.73;1.63;;;20.40;60.30;;;;;;4967889;29;20023;-68
2022/10/19 10:46:59;;;;;;;1.52;1.42;;;20.50;60.40;;;;;;4973411;28;20037;-68
2022/10/19 10:49:34;;;;;;;1.92;1.83;;;20.40;60.30;;;;;;4968145;29;20027;-68
2022/10/19 10:52:08;;;;;;;1.55;1.45;;;20.40;60.40;;;;;;4968089;29;20023;-67
2022/10/19 10:54:34;;;;;;;1.30;1.20;;;20.50;60.40;;;;;;4968052;29;20027;-66
2022/10/19 10:57:17;;;;;;;2.08;1.42;;;20.50;60.40;;;;;;4967988;29;20268;-68
2022/10/19 11:00:06;;;;;;;2.13;1.67;;;20.50;60.30;;;;;;4967864;29;20233;-68
2022/10/19 11:02:47;;;;;;;1.98;1.88;;;20.50;60.30;;;;;;4967921;28;20015;-65
2022/10/19 11:05:30;;;;;;;1.60;1.50;;;20.50;60.30;;;;;;4967858;29;20398;-67
2022/10/19 11:08:13;;;;;;;1.73;1.63;;;20.60;60.20;;;;;;4967838;29;20066;-66
2022/10/19 11:10:48;;;;;;;1.42;1.30;;;20.60;60.80;;;;;;4967788;29;20215;-68
2022/10/19 11:13:27;;;;;;;1.73;1.33;;;20.60;60.20;;;;;;4967724;28;20310;-68
2022/10/19 11:16:16;;;;;;;1.70;1.60;;;20.50;60.20;;;;;;4967677;29;20023;-66
2022/10/19 11:18:47;;;;;;;1.52;1.42;;;20.50;60.40;;;;;;4967498;29;20030;-66
2022/10/19 11:21:29;;;;;;;1.70;1.60;;;20.50;60.30;;;;;;4967537;29;20366;-69
2022/10/19 11:24:19;;;;;;;1.38;1.27;;;20.60;60.20;;;;;;4967527;29;20031;-66
2022/10/19 11:27:06;;;;;;;1.60;1.30;;;20.60;60.80;;;;;;4967489;29;20038;-66
2022/10/19 11:29:56;;;;;;;2.25;1.50;;;20.60;60.10;;;;;;4967467;28;20026;-66
2022/10/19 11:32:24;;;;;;;1.50;1.40;;;20.70;60.10;;;;;;4967358;29;20022;-66
2022/10/19 11:35:02;;;;;;;1.98;1.48;;;20.70;60.20;;;;;;4967287;29;20023;-66
2022/10/19 11:37:33;;;;;;;1.50;1.40;;;20.70;60.20;;;;;;4966479;29;20047;-66
2022/10/19 11:40:28;;;;;;;1.67;1.58;;;20.70;60.20;;;;;;4967145;29;20027;-66
2022/10/19 11:43:23;;;;;;;1.35;1.25;;;20.70;60.10;;;;;;4974694;28;20382;-68
2022/10/19 11:45:52;;;;;;;1.45;1.35;;;20.70;60.10;;;;;;4970558;28;20038;-67
2022/10/19 11:48:36;;;;;;;1.50;1.40;;;20.60;60.20;;;;;;4967045;29;20315;-66
2022/10/19 11:51:08;;;;;;;1.30;1.10;;;20.70;60.20;;;;;;4967031;28;20069;-68
2022/10/19 11:53:45;;;;;;;1.90;1.75;;;20.70;60.20;;;;;;4966978;29;20315;-68
2022/10/19 11:56:19;;;;;;;1.75;1.65;;;20.70;60.10;;;;;;4966894;29;20031;-69
2022/10/19 11:59:07;;;;;;;1.40;1.27;;;20.70;60.10;;;;;;4966836;28;20200;-66
2022/10/19 12:01:48;;;;;;;1.30;1.20;;;20.70;60.10;;;;;;4966857;29;20334;-68
2022/10/19 12:04:20;;;;;;;1.80;1.58;;;20.70;60.20;;;;;;4966756;29;20251;-68
2022/10/19 12:07:12;;;;;;;1.60;1.50;;;20.70;60.20;;;;;;4966707;29;20042;-67
2022/10/19 12:09:52;;;;;;;1.30;1.20;;;20.80;60.20;;;;;;4966695;29;20030;-66
2022/10/19 12:12:41;;;;;;;1.45;1.35;;;20.70;60.20;;;;;;4966679;29;20090;-68
2022/10/19 12:15:10;;;;;;;1.20;1.10;;;20.80;60.80;;;;;;4966610;29;20095;-67
2022/10/19 12:17:40;;;;;;;1.83;1.40;;;20.80;60.20;;;;;;4966518;29;20078;-67
2022/10/19 12:20:29;;;;;;;1.40;1.30;;;20.80;60.10;;;;;;4966394;29;20026;-68
2022/10/19 12:22:58;;;;;;;1.65;1.30;;;20.80;60.20;;;;;;4966293;28;20055;-67
2022/10/19 12:25:25;;;;;;;1.55;1.45;;;20.80;60.10;;;;;;4966426;28;20038;-67
2022/10/19 12:27:51;;;;;;;3.20;1.60;;;20.80;60.10;;;;;;4966317;29;20015;-68
2022/10/19 12:30:21;;;;;;;1.40;1.30;;;20.90;60.10;;;;;;4966293;29;20219;-66
2022/10/19 12:33:01;;;;;;;1.70;1.60;;;20.80;60.00;;;;;;4966239;29;20319;-67
2022/10/19 12:35:43;;;;;;;1.67;1.58;;;20.90;60.00;;;;;;4966195;29;20027;-66
2022/10/19 12:38:28;;;;;;;1.50;1.40;;;20.90;60.00;;;;;;4966196;29;20050;-66
2022/10/19 12:41:09;;;;;;;1.50;1.40;;;20.90;59.80;;;;;;4966051;29;20098;-66
2022/10/19 12:43:52;;;;;;;1.98;1.30;;;21.00;59.70;;;;;;4966053;29;20049;-66
2022/10/19 12:46:27;;;;;;;2.00;1.63;;;21.10;59.50;;;;;;4965994;29;20023;-66
2022/10/19 12:49:26;;;;;;;1.63;1.40;;;21.20;59.20;;;;;;4965866;28;20019;-67
2022/10/19 12:51:53;;;;;;;1.73;1.63;;;21.30;58.90;;;;;;4971817;28;20307;-66
2022/10/19 12:54:27;;;;;;;1.48;1.38;;;21.40;58.80;;;;;;4965930;28;20082;-68
2022/10/19 12:56:55;;;;;;;1.33;1.23;;;21.50;58.60;;;;;;4965854;29;20015;-66
2022/10/19 12:59:33;;;;;;;1.42;1.33;;;21.60;58.40;;;;;;4965745;29;20061;-66
2022/10/19 13:02:01;;;;;;;1.48;1.38;;;21.70;58.00;;;;;;4965791;29;20027;-68
2022/10/19 13:04:34;;;;;;;1.52;1.35;;;21.70;57.80;;;;;;4965742;29;20084;-66
2022/10/19 13:07:04;;;;;;;1.77;1.13;;;21.90;57.60;;;;;;4965667;28;20015;-66
2022/10/19 13:09:34;;;;;;;2.10;1.52;;;22.00;57.40;;;;;;4965629;29;20330;-66